National Weather Service United States Department of Commerce

Northeast Coastal Storm Impacts into Wednesday; Severe Thunderstorm Development Shifts to the Gulf Coast

The coastal storm will push further off the Northeast U.S. coast Wednesday with high winds and heavy rain tapering off through the day. Isolated to scattered severe thunderstorms capable of producing damaging winds and a few tornadoes should occur Wednesday into Wednesday night from parts of east Texas across Louisiana to the central Gulf Coast. Read More >


000
FTPA31 PHFO 270630 AAA
TAFSTU
TAF AMD
NSTU 270630Z 2706/2806 13015KT P6SM VCSH SCT014 BKN035 BKN090=


000
SAZS31 NSTU 270900
MTRPPG
METAR NSTU 270850Z 13013KT 10SM SCT015 BKN035 OVC090 26/25 A2992 RMK
SLP134 60019 8/87/ T02610254 52014=


METAR Formatted Surface Weather Observation  Issued: 10/26/2021 10:00:35 PM SST

NSTU Observation History

 

Significant Weather Charts